sensor_id;sensor_type;location;lat;lon;timestamp;pressure;altitude;pressure_sealevel;temperature;humidity
35507;BME280;36461;52.018;21.036;2022-08-21T00:01:10;99960.55;;;20.32;77.96
35507;BME280;36461;52.018;21.036;2022-08-21T00:03:37;99963.20;;;20.26;78.02
35507;BME280;36461;52.018;21.036;2022-08-21T00:06:04;99957.95;;;20.20;78.21
35507;BME280;36461;52.018;21.036;2022-08-21T00:08:31;99954.48;;;20.14;78.35
35507;BME280;36461;52.018;21.036;2022-08-21T00:10:58;99956.17;;;20.09;78.45
35507;BME280;36461;52.018;21.036;2022-08-21T00:13:24;99953.05;;;20.04;78.58
35507;BME280;36461;52.018;21.036;2022-08-21T00:15:51;99953.44;;;20.00;78.73
35507;BME280;36461;52.018;21.036;2022-08-21T00:18:18;99944.69;;;19.93;78.77
35507;BME280;36461;52.018;21.036;2022-08-21T00:20:46;99947.78;;;19.87;78.82
35507;BME280;36461;52.018;21.036;2022-08-21T00:23:14;99946.36;;;19.83;79.04
35507;BME280;36461;52.018;21.036;2022-08-21T00:25:42;99945.50;;;19.77;79.20
35507;BME280;36461;52.018;21.036;2022-08-21T00:28:10;99944.53;;;19.72;79.36
35507;BME280;36461;52.018;21.036;2022-08-21T00:30:38;99940.95;;;19.68;79.56
35507;BME280;36461;52.018;21.036;2022-08-21T00:33:06;99938.56;;;19.65;79.66
35507;BME280;36461;52.018;21.036;2022-08-21T00:35:37;99933.14;;;19.60;79.75
35507;BME280;36461;52.018;21.036;2022-08-21T00:38:06;99935.56;;;19.58;79.89
35507;BME280;36461;52.018;21.036;2022-08-21T00:40:41;99933.77;;;19.53;80.00
35507;BME280;36461;52.018;21.036;2022-08-21T00:43:21;99933.16;;;19.49;80.09
35507;BME280;36461;52.018;21.036;2022-08-21T00:45:51;99936.61;;;19.44;80.27
35507;BME280;36461;52.018;21.036;2022-08-21T00:48:19;99931.59;;;19.41;80.44
35507;BME280;36461;52.018;21.036;2022-08-21T00:50:55;99930.98;;;19.37;80.60
35507;BME280;36461;52.018;21.036;2022-08-21T00:53:36;99930.36;;;19.34;80.62
35507;BME280;36461;52.018;21.036;2022-08-21T00:56:05;99927.61;;;19.29;80.76
35507;BME280;36461;52.018;21.036;2022-08-21T00:58:33;99929.78;;;19.24;80.93
35507;BME280;36461;52.018;21.036;2022-08-21T01:01:04;99923.04;;;19.20;81.07
35507;BME280;36461;52.018;21.036;2022-08-21T01:03:32;99921.14;;;19.17;81.21
35507;BME280;36461;52.018;21.036;2022-08-21T01:05:59;99923.52;;;19.14;81.39
35507;BME280;36461;52.018;21.036;2022-08-21T01:08:25;99917.65;;;19.10;81.53
35507;BME280;36461;52.018;21.036;2022-08-21T01:10:53;99921.83;;;19.07;81.60
35507;BME280;36461;52.018;21.036;2022-08-21T01:13:23;99918.95;;;19.05;81.64
35507;BME280;36461;52.018;21.036;2022-08-21T01:15:53;99919.90;;;19.04;81.78
35507;BME280;36461;52.018;21.036;2022-08-21T01:18:22;99922.28;;;19.01;81.82
35507;BME280;36461;52.018;21.036;2022-08-21T01:21:16;99919.89;;;18.98;82.00
35507;BME280;36461;52.018;21.036;2022-08-21T01:23:48;99918.81;;;18.95;82.11
35507;BME280;36461;52.018;21.036;2022-08-21T01:26:19;99926.09;;;18.91;82.18
35507;BME280;36461;52.018;21.036;2022-08-21T01:31:43;99922.67;;;18.84;82.45
35507;BME280;36461;52.018;21.036;2022-08-21T01:34:10;99916.45;;;18.79;82.55
35507;BME280;36461;52.018;21.036;2022-08-21T01:36:37;99921.47;;;18.76;82.71
35507;BME280;36461;52.018;21.036;2022-08-21T01:39:05;99919.89;;;18.74;82.79
35507;BME280;36461;52.018;21.036;2022-08-21T01:41:32;99913.07;;;18.71;82.92
35507;BME280;36461;52.018;21.036;2022-08-21T01:43:58;99909.37;;;18.68;83.04
35507;BME280;36461;52.018;21.036;2022-08-21T01:46:25;99904.80;;;18.65;83.14
35507;BME280;36461;52.018;21.036;2022-08-21T01:48:52;99899.78;;;18.61;83.27
35507;BME280;36461;52.018;21.036;2022-08-21T01:51:19;99892.58;;;18.58;83.31
35507;BME280;36461;52.018;21.036;2022-08-21T01:53:46;99897.13;;;18.56;83.49
35507;BME280;36461;52.018;21.036;2022-08-21T01:56:14;99891.63;;;18.53;83.56
35507;BME280;36461;52.018;21.036;2022-08-21T01:58:42;99889.56;;;18.51;83.70
35507;BME280;36461;52.018;21.036;2022-08-21T02:01:12;99889.80;;;18.48;83.74
35507;BME280;36461;52.018;21.036;2022-08-21T02:03:40;99893.95;;;18.45;83.79
35507;BME280;36461;52.018;21.036;2022-08-21T02:06:11;99896.81;;;18.42;83.88
35507;BME280;36461;52.018;21.036;2022-08-21T02:08:39;99892.16;;;18.40;83.96
35507;BME280;36461;52.018;21.036;2022-08-21T02:11:06;99895.36;;;18.38;84.12
35507;BME280;36461;52.018;21.036;2022-08-21T02:13:32;99890.70;;;18.36;84.21
35507;BME280;36461;52.018;21.036;2022-08-21T02:15:58;99890.79;;;18.34;84.37
35507;BME280;36461;52.018;21.036;2022-08-21T02:18:25;99891.02;;;18.31;84.46
35507;BME280;36461;52.018;21.036;2022-08-21T02:20:51;99887.31;;;18.28;84.64
35507;BME280;36461;52.018;21.036;2022-08-21T02:23:17;99889.80;;;18.24;84.76
35507;BME280;36461;52.018;21.036;2022-08-21T02:25:44;99891.31;;;18.21;84.85
35507;BME280;36461;52.018;21.036;2022-08-21T02:28:13;99884.61;;;18.17;84.99
35507;BME280;36461;52.018;21.036;2022-08-21T02:30:43;99883.89;;;18.15;85.10
35507;BME280;36461;52.018;21.036;2022-08-21T02:33:12;99879.70;;;18.12;85.21
35507;BME280;36461;52.018;21.036;2022-08-21T02:35:41;99872.88;;;18.09;85.28
35507;BME280;36461;52.018;21.036;2022-08-21T02:38:10;99873.45;;;18.07;85.44
35507;BME280;36461;52.018;21.036;2022-08-21T02:40:40;99876.67;;;18.05;85.56
35507;BME280;36461;52.018;21.036;2022-08-21T02:43:08;99874.16;;;18.04;85.65
35507;BME280;36461;52.018;21.036;2022-08-21T02:45:36;99872.59;;;18.01;85.73
35507;BME280;36461;52.018;21.036;2022-08-21T02:48:06;99870.08;;;18.00;85.81
35507;BME280;36461;52.018;21.036;2022-08-21T02:50:37;99867.91;;;17.99;85.96
35507;BME280;36461;52.018;21.036;2022-08-21T02:53:07;99870.66;;;17.98;86.04
35507;BME280;36461;52.018;21.036;2022-08-21T02:55:36;99868.14;;;17.96;86.21
35507;BME280;36461;52.018;21.036;2022-08-21T02:58:05;99870.50;;;17.93;86.31
35507;BME280;36461;52.018;21.036;2022-08-21T03:00:35;99873.13;;;17.93;86.41
35507;BME280;36461;52.018;21.036;2022-08-21T03:03:03;99870.22;;;17.91;86.50
35507;BME280;36461;52.018;21.036;2022-08-21T03:05:32;99865.08;;;17.89;86.60
35507;BME280;36461;52.018;21.036;2022-08-21T03:08:01;99862.08;;;17.88;86.73
35507;BME280;36461;52.018;21.036;2022-08-21T03:10:28;99859.09;;;17.87;86.82
35507;BME280;36461;52.018;21.036;2022-08-21T03:12:56;99861.38;;;17.86;86.93
35507;BME280;36461;52.018;21.036;2022-08-21T03:15:24;99857.05;;;17.85;87.00
35507;BME280;36461;52.018;21.036;2022-08-21T03:17:51;99857.28;;;17.82;87.09
35507;BME280;36461;52.018;21.036;2022-08-21T03:20:22;99852.98;;;17.81;87.24
35507;BME280;36461;52.018;21.036;2022-08-21T03:22:50;99855.23;;;17.80;87.35
35507;BME280;36461;52.018;21.036;2022-08-21T03:25:18;99852.60;;;17.80;87.44
35507;BME280;36461;52.018;21.036;2022-08-21T03:27:46;99853.55;;;17.79;87.50
35507;BME280;36461;52.018;21.036;2022-08-21T03:30:15;99850.47;;;17.80;87.57
35507;BME280;36461;52.018;21.036;2022-08-21T03:32:44;99849.98;;;17.80;87.66
35507;BME280;36461;52.018;21.036;2022-08-21T03:35:12;99847.84;;;17.80;87.72
35507;BME280;36461;52.018;21.036;2022-08-21T03:37:39;99852.23;;;17.79;87.84
35507;BME280;36461;52.018;21.036;2022-08-21T03:40:08;99855.11;;;17.82;88.06
35507;BME280;36461;52.018;21.036;2022-08-21T03:42:35;99860.62;;;17.84;88.17
35507;BME280;36461;52.018;21.036;2022-08-21T03:45:03;99859.20;;;17.86;88.30
35507;BME280;36461;52.018;21.036;2022-08-21T03:47:30;99855.89;;;17.89;88.39
35507;BME280;36461;52.018;21.036;2022-08-21T03:49:56;99849.61;;;17.92;88.36
35507;BME280;36461;52.018;21.036;2022-08-21T03:52:23;99847.24;;;17.94;88.33
35507;BME280;36461;52.018;21.036;2022-08-21T03:54:49;99856.95;;;18.00;88.35
35507;BME280;36461;52.018;21.036;2022-08-21T03:57:16;99854.58;;;18.02;88.36
35507;BME280;36461;52.018;21.036;2022-08-21T03:59:44;99856.03;;;18.06;88.42
35507;BME280;36461;52.018;21.036;2022-08-21T04:02:12;99850.44;;;18.11;88.42
35507;BME280;36461;52.018;21.036;2022-08-21T04:04:42;99852.26;;;18.16;88.44
35507;BME280;36461;52.018;21.036;2022-08-21T04:07:09;99857.42;;;18.23;88.43
35507;BME280;36461;52.018;21.036;2022-08-21T04:09:35;99853.53;;;18.29;88.46
35507;BME280;36461;52.018;21.036;2022-08-21T04:12:02;99861.80;;;18.36;88.50
35507;BME280;36461;52.018;21.036;2022-08-21T04:14:29;99851.68;;;18.42;88.54
35507;BME280;36461;52.018;21.036;2022-08-21T04:16:56;99851.20;;;18.49;88.50
35507;BME280;36461;52.018;21.036;2022-08-21T04:19:23;99850.16;;;18.57;88.47
35507;BME280;36461;52.018;21.036;2022-08-21T04:21:50;99845.65;;;18.65;88.42
35507;BME280;36461;52.018;21.036;2022-08-21T04:24:16;99847.71;;;18.72;88.29
35507;BME280;36461;52.018;21.036;2022-08-21T04:26:43;99849.77;;;18.80;88.16
35507;BME280;36461;52.018;21.036;2022-08-21T04:29:09;99842.72;;;18.86;88.05
35507;BME280;36461;52.018;21.036;2022-08-21T04:31:37;99851.26;;;18.95;88.05
35507;BME280;36461;52.018;21.036;2022-08-21T04:34:04;99849.61;;;19.06;88.03
35507;BME280;36461;52.018;21.036;2022-08-21T04:36:33;99847.10;;;19.16;87.97
35507;BME280;36461;52.018;21.036;2022-08-21T04:38:59;99848.20;;;19.24;87.75
35507;BME280;36461;52.018;21.036;2022-08-21T04:41:26;99850.70;;;19.32;87.62
35507;BME280;36461;52.018;21.036;2022-08-21T04:43:52;99850.00;;;19.41;87.35
35507;BME280;36461;52.018;21.036;2022-08-21T04:46:21;99849.50;;;19.47;87.13
35507;BME280;36461;52.018;21.036;2022-08-21T04:48:49;99850.95;;;19.57;86.96
35507;BME280;36461;52.018;21.036;2022-08-21T04:51:24;99852.62;;;19.64;86.78
35507;BME280;36461;52.018;21.036;2022-08-21T04:53:59;99848.17;;;19.70;86.63
35507;BME280;36461;52.018;21.036;2022-08-21T04:56:35;99852.97;;;19.76;86.44
35507;BME280;36461;52.018;21.036;2022-08-21T04:59:05;99852.03;;;19.83;86.15
35507;BME280;36461;52.018;21.036;2022-08-21T05:01:35;99849.37;;;19.88;86.05
35507;BME280;36461;52.018;21.036;2022-08-21T05:04:05;99845.31;;;19.95;85.65
35507;BME280;36461;52.018;21.036;2022-08-21T05:06:35;99852.45;;;20.05;85.60
35507;BME280;36461;52.018;21.036;2022-08-21T05:09:03;99857.73;;;20.10;85.27
35507;BME280;36461;52.018;21.036;2022-08-21T05:11:31;99867.88;;;20.15;85.01
35507;BME280;36461;52.018;21.036;2022-08-21T05:13:59;99861.29;;;20.15;84.60
35507;BME280;36461;52.018;21.036;2022-08-21T05:16:27;99863.77;;;20.22;84.69
35507;BME280;36461;52.018;21.036;2022-08-21T05:18:54;99862.92;;;20.27;84.21
35507;BME280;36461;52.018;21.036;2022-08-21T05:21:21;99858.22;;;20.37;84.40
35507;BME280;36461;52.018;21.036;2022-08-21T05:23:48;99860.20;;;20.50;84.17
35507;BME280;36461;52.018;21.036;2022-08-21T05:26:16;99857.87;;;20.62;83.99
35507;BME280;36461;52.018;21.036;2022-08-21T05:28:43;99858.22;;;20.75;83.84
35507;BME280;36461;52.018;21.036;2022-08-21T05:31:11;99862.23;;;20.85;83.29
35507;BME280;36461;52.018;21.036;2022-08-21T05:33:40;99853.91;;;20.95;83.01
35507;BME280;36461;52.018;21.036;2022-08-21T05:36:08;99862.56;;;21.07;82.62
35507;BME280;36461;52.018;21.036;2022-08-21T05:38:37;99865.92;;;21.09;81.92
35507;BME280;36461;52.018;21.036;2022-08-21T05:41:05;99866.28;;;21.10;81.83
35507;BME280;36461;52.018;21.036;2022-08-21T05:43:33;99869.84;;;21.15;81.65
35507;BME280;36461;52.018;21.036;2022-08-21T05:46:03;99868.25;;;21.18;81.05
35507;BME280;36461;52.018;21.036;2022-08-21T05:48:31;99864.59;;;21.24;81.12
35507;BME280;36461;52.018;21.036;2022-08-21T05:51:05;99864.53;;;21.36;81.04
35507;BME280;36461;52.018;21.036;2022-08-21T05:53:36;99865.53;;;21.44;80.94
35507;BME280;36461;52.018;21.036;2022-08-21T05:56:05;99861.30;;;21.53;80.66
35507;BME280;36461;52.018;21.036;2022-08-21T05:58:34;99863.37;;;21.65;80.58
35507;BME280;36461;52.018;21.036;2022-08-21T06:01:03;99860.14;;;21.77;80.51
35507;BME280;36461;52.018;21.036;2022-08-21T06:03:33;99859.58;;;21.83;80.12
35507;BME280;36461;52.018;21.036;2022-08-21T06:06:03;99850.11;;;21.81;79.30
35507;BME280;36461;52.018;21.036;2022-08-21T06:08:30;99851.19;;;21.84;79.31
35507;BME280;36461;52.018;21.036;2022-08-21T06:11:00;99848.70;;;21.92;79.12
35507;BME280;36461;52.018;21.036;2022-08-21T06:13:29;99853.24;;;22.05;79.29
35507;BME280;36461;52.018;21.036;2022-08-21T06:16:08;99852.70;;;22.21;79.38
35507;BME280;36461;52.018;21.036;2022-08-21T06:18:40;99857.66;;;22.40;79.00
35507;BME280;36461;52.018;21.036;2022-08-21T06:21:08;99850.35;;;22.57;78.51
35507;BME280;36461;52.018;21.036;2022-08-21T06:23:35;99857.31;;;22.78;78.08
35507;BME280;36461;52.018;21.036;2022-08-21T06:26:04;99862.70;;;22.96;77.82
35507;BME280;36461;52.018;21.036;2022-08-21T06:28:33;99860.93;;;23.10;77.24
35507;BME280;36461;52.018;21.036;2022-08-21T06:31:01;99861.42;;;23.20;76.27
35507;BME280;36461;52.018;21.036;2022-08-21T06:33:41;99866.47;;;23.37;76.34
35507;BME280;36461;52.018;21.036;2022-08-21T06:36:09;99873.59;;;23.50;75.72
35507;BME280;36461;52.018;21.036;2022-08-21T06:38:37;99872.42;;;23.62;75.45
35507;BME280;36461;52.018;21.036;2022-08-21T06:41:05;99878.16;;;23.72;74.94
35507;BME280;36461;52.018;21.036;2022-08-21T06:43:34;99877.75;;;23.80;74.79
35507;BME280;36461;52.018;21.036;2022-08-21T06:46:02;99885.88;;;23.93;74.46
35507;BME280;36461;52.018;21.036;2022-08-21T06:48:29;99876.41;;;24.04;74.23
35507;BME280;36461;52.018;21.036;2022-08-21T06:50:59;99885.50;;;24.20;74.06
35507;BME280;36461;52.018;21.036;2022-08-21T06:53:27;99879.45;;;24.27;73.77
35507;BME280;36461;52.018;21.036;2022-08-21T06:55:53;99889.84;;;24.39;73.23
35507;BME280;36461;52.018;21.036;2022-08-21T06:58:21;99891.88;;;24.45;72.58
35507;BME280;36461;52.018;21.036;2022-08-21T07:00:50;99894.09;;;24.50;72.20
35507;BME280;36461;52.018;21.036;2022-08-21T07:03:22;99892.61;;;24.51;71.91
35507;BME280;36461;52.018;21.036;2022-08-21T07:05:51;99893.78;;;24.53;71.65
35507;BME280;36461;52.018;21.036;2022-08-21T07:08:20;99882.16;;;24.50;71.28
35507;BME280;36461;52.018;21.036;2022-08-21T07:10:49;99885.59;;;24.46;70.81
35507;BME280;36461;52.018;21.036;2022-08-21T07:13:20;99889.47;;;24.34;70.82
35507;BME280;36461;52.018;21.036;2022-08-21T07:15:48;99882.45;;;24.28;70.51
35507;BME280;36461;52.018;21.036;2022-08-21T07:18:16;99881.23;;;24.23;70.47
35507;BME280;36461;52.018;21.036;2022-08-21T07:20:44;99884.83;;;24.18;70.35
35507;BME280;36461;52.018;21.036;2022-08-21T07:25:54;99885.88;;;24.07;70.68
35507;BME280;36461;52.018;21.036;2022-08-21T07:28:25;99885.06;;;24.10;70.56
35507;BME280;36461;52.018;21.036;2022-08-21T07:30:55;99879.91;;;24.09;70.53
35507;BME280;36461;52.018;21.036;2022-08-21T07:33:28;99872.31;;;24.10;70.31
35507;BME280;36461;52.018;21.036;2022-08-21T07:35:58;99867.36;;;24.11;70.46
35507;BME280;36461;52.018;21.036;2022-08-21T07:38:27;99866.70;;;24.13;70.36
35507;BME280;36461;52.018;21.036;2022-08-21T07:40:56;99865.09;;;24.16;70.38
35507;BME280;36461;52.018;21.036;2022-08-21T07:43:26;99865.95;;;24.21;70.59
35507;BME280;36461;52.018;21.036;2022-08-21T07:45:57;99858.38;;;24.26;70.61
35507;BME280;36461;52.018;21.036;2022-08-21T07:48:27;99856.12;;;24.31;70.40
35507;BME280;36461;52.018;21.036;2022-08-21T07:50:56;99860.56;;;24.30;70.35
35507;BME280;36461;52.018;21.036;2022-08-21T07:53:24;99857.32;;;24.37;70.52
35507;BME280;36461;52.018;21.036;2022-08-21T07:55:56;99852.36;;;24.38;70.47
35507;BME280;36461;52.018;21.036;2022-08-21T07:58:25;99855.68;;;24.40;70.31
35507;BME280;36461;52.018;21.036;2022-08-21T08:00:54;99847.28;;;24.44;70.56
35507;BME280;36461;52.018;21.036;2022-08-21T08:03:24;99849.46;;;24.49;70.40
35507;BME280;36461;52.018;21.036;2022-08-21T08:05:55;99843.30;;;24.44;69.86
35507;BME280;36461;52.018;21.036;2022-08-21T08:08:25;99837.05;;;24.50;69.92
35507;BME280;36461;52.018;21.036;2022-08-21T08:10:56;99836.86;;;24.47;69.28
35507;BME280;36461;52.018;21.036;2022-08-21T08:13:25;99838.50;;;24.48;69.33
35507;BME280;36461;52.018;21.036;2022-08-21T08:15:58;99838.72;;;24.55;69.26
35507;BME280;36461;52.018;21.036;2022-08-21T08:18:30;99834.93;;;24.57;69.10
35507;BME280;36461;52.018;21.036;2022-08-21T08:21:02;99837.83;;;24.64;69.42
35507;BME280;36461;52.018;21.036;2022-08-21T08:23:33;99833.09;;;24.72;69.33
35507;BME280;36461;52.018;21.036;2022-08-21T08:26:02;99837.44;;;24.77;68.78
35507;BME280;36461;52.018;21.036;2022-08-21T08:28:33;99828.97;;;24.77;68.65
35507;BME280;36461;52.018;21.036;2022-08-21T08:31:07;99832.19;;;24.85;68.95
35507;BME280;36461;52.018;21.036;2022-08-21T08:33:58;99835.19;;;24.86;68.49
35507;BME280;36461;52.018;21.036;2022-08-21T08:36:36;99826.90;;;24.89;68.46
35507;BME280;36461;52.018;21.036;2022-08-21T08:39:05;99824.45;;;24.96;68.44
35507;BME280;36461;52.018;21.036;2022-08-21T08:41:36;99828.62;;;24.99;68.35
35507;BME280;36461;52.018;21.036;2022-08-21T08:44:05;99823.63;;;24.95;68.27
35507;BME280;36461;52.018;21.036;2022-08-21T08:46:46;99824.98;;;25.00;68.35
35507;BME280;36461;52.018;21.036;2022-08-21T08:52:26;99826.70;;;25.09;67.82
35507;BME280;36461;52.018;21.036;2022-08-21T08:57:41;99830.39;;;25.20;66.55
35507;BME280;36461;52.018;21.036;2022-08-21T09:00:14;99829.25;;;25.23;66.55
35507;BME280;36461;52.018;21.036;2022-08-21T09:02:45;99830.95;;;25.32;66.48
35507;BME280;36461;52.018;21.036;2022-08-21T09:05:30;99834.66;;;25.39;66.49
35507;BME280;36461;52.018;21.036;2022-08-21T09:14:47;99827.08;;;25.53;65.43
35507;BME280;36461;52.018;21.036;2022-08-21T09:17:31;99829.78;;;25.61;65.60
35507;BME280;36461;52.018;21.036;2022-08-21T09:26:24;99832.17;;;25.89;64.53
35507;BME280;36461;52.018;21.036;2022-08-21T09:28:56;99830.75;;;26.03;63.51
35507;BME280;36461;52.018;21.036;2022-08-21T09:31:34;99831.76;;;26.26;63.34
35507;BME280;36461;52.018;21.036;2022-08-21T09:34:09;99830.94;;;26.46;63.75
35507;BME280;36461;52.018;21.036;2022-08-21T09:36:42;99824.94;;;26.69;63.29
35507;BME280;36461;52.018;21.036;2022-08-21T09:39:22;99828.11;;;26.85;62.16
35507;BME280;36461;52.018;21.036;2022-08-21T09:42:01;99823.40;;;27.08;61.83
35507;BME280;36461;52.018;21.036;2022-08-21T09:44:33;99820.48;;;27.30;61.37
35507;BME280;36461;52.018;21.036;2022-08-21T09:47:08;99822.11;;;27.52;61.55
35507;BME280;36461;52.018;21.036;2022-08-21T09:49:44;99819.38;;;27.64;60.57
35507;BME280;36461;52.018;21.036;2022-08-21T09:52:19;99817.20;;;27.63;59.12
35507;BME280;36461;52.018;21.036;2022-08-21T09:54:52;99816.92;;;27.50;59.19
35507;BME280;36461;52.018;21.036;2022-08-21T09:57:29;99810.15;;;27.39;59.17
35507;BME280;36461;52.018;21.036;2022-08-21T10:00:09;99813.69;;;27.27;59.21
35507;BME280;36461;52.018;21.036;2022-08-21T10:02:39;99812.23;;;27.08;58.83
35507;BME280;36461;52.018;21.036;2022-08-21T10:05:17;99812.94;;;26.98;59.19
35507;BME280;36461;52.018;21.036;2022-08-21T10:07:48;99811.78;;;26.88;59.27
35507;BME280;36461;52.018;21.036;2022-08-21T10:10:21;99815.78;;;26.84;59.62
35507;BME280;36461;52.018;21.036;2022-08-21T10:19:29;99812.50;;;26.74;59.96
35507;BME280;36461;52.018;21.036;2022-08-21T10:40:00;99800.41;;;27.11;61.83
35507;BME280;36461;52.018;21.036;2022-08-21T10:48:35;99798.12;;;27.52;60.41
35507;BME280;36461;52.018;21.036;2022-08-21T10:56:45;99793.25;;;27.55;59.06
35507;BME280;36461;52.018;21.036;2022-08-21T10:59:26;99793.73;;;27.59;57.88
35507;BME280;36461;52.018;21.036;2022-08-21T11:02:08;99791.72;;;27.65;57.44
35507;BME280;36461;52.018;21.036;2022-08-21T11:07:33;99786.94;;;27.79;56.73
35507;BME280;36461;52.018;21.036;2022-08-21T11:10:29;99787.27;;;27.80;56.63
35507;BME280;36461;52.018;21.036;2022-08-21T11:13:44;99781.30;;;27.78;55.32
35507;BME280;36461;52.018;21.036;2022-08-21T11:16:44;99779.58;;;27.86;54.60
35507;BME280;36461;52.018;21.036;2022-08-21T11:25:33;99776.97;;;28.81;53.98
35507;BME280;36461;52.018;21.036;2022-08-21T11:28:16;99775.52;;;29.19;53.01
35507;BME280;36461;52.018;21.036;2022-08-21T11:52:03;99778.98;;;29.39;50.57
35507;BME280;36461;52.018;21.036;2022-08-21T11:57:41;99777.11;;;28.99;50.01
35507;BME280;36461;52.018;21.036;2022-08-21T12:03:13;99780.22;;;28.53;49.75
35507;BME280;36461;52.018;21.036;2022-08-21T12:05:54;99781.59;;;28.49;50.09
35507;BME280;36461;52.018;21.036;2022-08-21T12:08:38;99776.88;;;28.55;50.40
35507;BME280;36461;52.018;21.036;2022-08-21T12:16:42;99764.72;;;28.87;49.40
35507;BME280;36461;52.018;21.036;2022-08-21T12:19:29;99760.47;;;28.92;49.90
35507;BME280;36461;52.018;21.036;2022-08-21T12:22:12;99761.76;;;28.96;49.71
35507;BME280;36461;52.018;21.036;2022-08-21T12:24:49;99767.44;;;28.83;49.26
35507;BME280;36461;52.018;21.036;2022-08-21T12:27:45;99767.82;;;28.60;49.17
35507;BME280;36461;52.018;21.036;2022-08-21T12:33:05;99775.08;;;28.33;49.35
35507;BME280;36461;52.018;21.036;2022-08-21T12:35:41;99776.80;;;28.25;48.95
35507;BME280;36461;52.018;21.036;2022-08-21T12:38:23;99771.82;;;28.22;49.54
35507;BME280;36461;52.018;21.036;2022-08-21T12:41:03;99775.08;;;28.33;49.41
35507;BME280;36461;52.018;21.036;2022-08-21T12:43:37;99771.78;;;28.45;49.32
35507;BME280;36461;52.018;21.036;2022-08-21T12:46:19;99771.54;;;28.55;49.56
35507;BME280;36461;52.018;21.036;2022-08-21T12:49:08;99771.50;;;28.59;49.44
35507;BME280;36461;52.018;21.036;2022-08-21T12:54:59;99773.34;;;28.78;49.28
35507;BME280;36461;52.018;21.036;2022-08-21T12:57:36;99763.20;;;28.88;48.75
35507;BME280;36461;52.018;21.036;2022-08-21T13:00:13;99769.01;;;28.92;48.94
35507;BME280;36461;52.018;21.036;2022-08-21T13:02:47;99769.62;;;28.98;49.62
35507;BME280;36461;52.018;21.036;2022-08-21T13:05:33;99766.14;;;28.93;48.91
35507;BME280;36461;52.018;21.036;2022-08-21T13:08:09;99765.86;;;28.88;49.44
35507;BME280;36461;52.018;21.036;2022-08-21T13:10:42;99769.45;;;28.80;49.08
35507;BME280;36461;52.018;21.036;2022-08-21T13:13:20;99768.87;;;28.74;48.60
35507;BME280;36461;52.018;21.036;2022-08-21T13:16:06;99771.16;;;28.58;49.05
35507;BME280;36461;52.018;21.036;2022-08-21T13:18:51;99769.62;;;28.45;49.37
35507;BME280;36461;52.018;21.036;2022-08-21T13:21:16;99772.33;;;28.41;49.63
35507;BME280;36461;52.018;21.036;2022-08-21T13:23:52;99776.05;;;28.36;49.42
35507;BME280;36461;52.018;21.036;2022-08-21T13:26:23;99774.94;;;28.30;49.44
35507;BME280;36461;52.018;21.036;2022-08-21T13:28:56;99763.81;;;28.22;49.48
35507;BME280;36461;52.018;21.036;2022-08-21T13:31:36;99760.70;;;28.15;49.65
35507;BME280;36461;52.018;21.036;2022-08-21T13:34:17;99761.19;;;28.18;50.20
35507;BME280;36461;52.018;21.036;2022-08-21T13:36:52;99759.66;;;28.20;50.71
35507;BME280;36461;52.018;21.036;2022-08-21T13:39:27;99763.74;;;28.11;50.54
35507;BME280;36461;52.018;21.036;2022-08-21T13:42:02;99762.92;;;28.11;50.93
35507;BME280;36461;52.018;21.036;2022-08-21T13:44:46;99769.45;;;28.08;50.18
35507;BME280;36461;52.018;21.036;2022-08-21T13:47:20;99763.77;;;28.07;50.09
35507;BME280;36461;52.018;21.036;2022-08-21T13:49:54;99763.89;;;28.14;50.65
35507;BME280;36461;52.018;21.036;2022-08-21T13:52:25;99762.63;;;28.25;51.12
35507;BME280;36461;52.018;21.036;2022-08-21T13:55:15;99754.73;;;28.32;51.05
35507;BME280;36461;52.018;21.036;2022-08-21T13:57:39;99762.88;;;28.34;51.16
35507;BME280;36461;52.018;21.036;2022-08-21T14:00:20;99754.06;;;28.34;50.86
35507;BME280;36461;52.018;21.036;2022-08-21T14:03:04;99767.66;;;28.39;51.01
35507;BME280;36461;52.018;21.036;2022-08-21T14:05:38;99764.14;;;28.42;51.06
35507;BME280;36461;52.018;21.036;2022-08-21T14:08:26;99765.84;;;28.39;51.02
35507;BME280;36461;52.018;21.036;2022-08-21T14:10:56;99775.12;;;28.28;50.49
35507;BME280;36461;52.018;21.036;2022-08-21T14:13:55;99775.23;;;28.16;50.48
35507;BME280;36461;52.018;21.036;2022-08-21T14:16:29;99774.15;;;28.02;50.52
35507;BME280;36461;52.018;21.036;2022-08-21T14:21:41;99778.70;;;27.93;51.32
35507;BME280;36461;52.018;21.036;2022-08-21T14:24:27;99777.22;;;27.91;51.46
35507;BME280;36461;52.018;21.036;2022-08-21T14:27:06;99779.03;;;27.90;51.36
35507;BME280;36461;52.018;21.036;2022-08-21T14:29:38;99773.13;;;27.80;51.11
35507;BME280;36461;52.018;21.036;2022-08-21T14:32:27;99778.94;;;27.79;51.28
35507;BME280;36461;52.018;21.036;2022-08-21T14:34:54;99774.45;;;27.80;51.43
35507;BME280;36461;52.018;21.036;2022-08-21T14:37:26;99775.30;;;27.76;51.45
35507;BME280;36461;52.018;21.036;2022-08-21T14:39:57;99777.48;;;27.73;51.37
35507;BME280;36461;52.018;21.036;2022-08-21T14:42:28;99781.17;;;27.68;51.40
35507;BME280;36461;52.018;21.036;2022-08-21T14:45:00;99778.56;;;27.59;51.79
35507;BME280;36461;52.018;21.036;2022-08-21T14:47:33;99776.94;;;27.50;51.55
35507;BME280;36461;52.018;21.036;2022-08-21T14:50:03;99766.13;;;27.48;51.76
35507;BME280;36461;52.018;21.036;2022-08-21T14:52:35;99774.61;;;27.51;52.20
35507;BME280;36461;52.018;21.036;2022-08-21T14:55:05;99772.79;;;27.48;52.94
35507;BME280;36461;52.018;21.036;2022-08-21T14:57:35;99770.17;;;27.39;52.97
35507;BME280;36461;52.018;21.036;2022-08-21T15:00:07;99766.36;;;27.29;52.12
35507;BME280;36461;52.018;21.036;2022-08-21T15:02:38;99770.06;;;27.20;52.32
35507;BME280;36461;52.018;21.036;2022-08-21T15:05:10;99770.42;;;27.17;52.39